首页
METAR-TAF:

METAR-TAF

机场 :

Siler City, 北卡罗来纳州, 美国

纬度: 35-42-15N, 经度: 079-30-15W, 海拔: 187米

当前天气观测

该预报发布于33分钟前的15:35 UTC
风速4节,风向南转西南
温度 25°C
湿度 69%
气压 1018 hPa
能見度: 16.1公里
散云层高于10000英尺

METAR: KSCR 161535Z AUTO 21004KT 10SM SCT100 25/19 A3007 RMK AO2 T02470193

时间: 12:08 (16:08 UTC)


TAF: 丢失

超过4000个机场的气象观测和天气预报(METAR&TAF报告)。

可查询的气象台以黄色和红色小点在地图上表示。

将鼠标移到小点上方,可查看气象台名称。

然后点击查看天气观测和预报。

如需切换地图:点击带黑十字的绿色按钮放大地图;点击带横线的绿色按钮缩小地图;或者点击绿色箭头查看邻近地区的地图。


METAR-TAF: